BEL3SG LIRF-EBBR
Flight info
| Callsign | BEL3SG |
|---|---|
| Flight time | 1h 46m |
| Altitude | 36000 |
| Route | SOVAN DCT AMTEL DCT LUMAV DCT SUMIR DCT UNIMI L12 MOGTI DCT KPT L608 MISGI Z104 GESLO N852 LNO |
| Aircraft | A320/M-SDE3FGHIRWY/LB1 |
Departure
| Time | 2026-05-07 16:25 |
|---|---|
| Airport | Rome–Fiumicino Leonardo da Vinci International Airport (LIRF) |
Arrival
| Time | 2026-05-07 18:12 |
|---|---|
| Airport | Brussels Airport (EBBR) |
| Time | Latitude | Longitude | Altitude | Speed | Heading |
|---|---|---|---|---|---|
| 2026-05-07 16:02 | 41.79510 | 12.25866 | 14 ft | 0 kts | 295° |
| 2026-05-07 16:11 | 41.79507 | 12.25874 | 15 ft | 4 kts | 294° |
| 2026-05-07 16:11 | 41.79501 | 12.25907 | 16 ft | 3 kts | 268° |
| 2026-05-07 16:12 | 41.79501 | 12.25935 | 16 ft | 4 kts | 281° |
| 2026-05-07 16:12 | 41.79492 | 12.25959 | 14 ft | 4 kts | 353° |
| 2026-05-07 16:12 | 41.79496 | 12.25959 | 15 ft | 4 kts | 356° |
| 2026-05-07 16:12 | 41.79522 | 12.25960 | 14 ft | 4 kts | 16° |
| 2026-05-07 16:13 | 41.79533 | 12.25968 | 14 ft | 3 kts | 25° |
| 2026-05-07 16:13 | 41.79557 | 12.25983 | 16 ft | 4 kts | 25° |
| 2026-05-07 16:13 | 41.79564 | 12.25987 | 15 ft | 0 kts | 25° |
| 2026-05-07 16:16 | 41.79574 | 12.25993 | 15 ft | 3 kts | 25° |
| 2026-05-07 16:16 | 41.79587 | 12.26001 | 14 ft | 2 kts | 25° |
| 2026-05-07 16:16 | 41.79593 | 12.26005 | 14 ft | 1 kts | 25° |
| 2026-05-07 16:17 | 41.79616 | 12.26020 | 14 ft | 5 kts | 25° |
| 2026-05-07 16:17 | 41.79640 | 12.26035 | 14 ft | 3 kts | 25° |
| 2026-05-07 16:17 | 41.79656 | 12.26045 | 16 ft | 2 kts | 25° |
| 2026-05-07 16:17 | 41.79676 | 12.26058 | 14 ft | 6 kts | 25° |
| 2026-05-07 16:18 | 41.79717 | 12.26084 | 14 ft | 6 kts | 25° |
| 2026-05-07 16:18 | 41.79751 | 12.26095 | 14 ft | 4 kts | 349° |
| 2026-05-07 16:18 | 41.79770 | 12.26056 | 14 ft | 8 kts | 293° |
| 2026-05-07 16:18 | 41.79801 | 12.25965 | 14 ft | 12 kts | 294° |
| 2026-05-07 16:19 | 41.79840 | 12.25854 | 14 ft | 14 kts | 295° |
| 2026-05-07 16:19 | 41.79890 | 12.25830 | 14 ft | 8 kts | 30° |
| 2026-05-07 16:19 | 41.79934 | 12.25860 | 14 ft | 7 kts | 25° |
| 2026-05-07 16:19 | 41.79989 | 12.25894 | 16 ft | 11 kts | 25° |
| 2026-05-07 16:20 | 41.80068 | 12.25943 | 14 ft | 14 kts | 25° |
| 2026-05-07 16:20 | 41.80150 | 12.25993 | 14 ft | 12 kts | 25° |
| 2026-05-07 16:20 | 41.80219 | 12.26036 | 14 ft | 10 kts | 25° |
| 2026-05-07 16:20 | 41.80279 | 12.26073 | 14 ft | 9 kts | 25° |
| 2026-05-07 16:21 | 41.80346 | 12.26114 | 14 ft | 12 kts | 25° |
| 2026-05-07 16:21 | 41.80409 | 12.26153 | 15 ft | 8 kts | 25° |
| 2026-05-07 16:21 | 41.80475 | 12.26181 | 16 ft | 13 kts | 10° |
| 2026-05-07 16:21 | 41.80535 | 12.26265 | 16 ft | 13 kts | 70° |
| 2026-05-07 16:22 | 41.80566 | 12.26374 | 16 ft | 14 kts | 69° |
| 2026-05-07 16:22 | 41.80604 | 12.26512 | 18 ft | 18 kts | 70° |
| 2026-05-07 16:22 | 41.80651 | 12.26681 | 15 ft | 20 kts | 70° |
| 2026-05-07 16:22 | 41.80697 | 12.26849 | 15 ft | 19 kts | 70° |
| 2026-05-07 16:23 | 41.80736 | 12.26985 | 15 ft | 14 kts | 69° |
| 2026-05-07 16:23 | 41.80768 | 12.27099 | 13 ft | 11 kts | 69° |
| 2026-05-07 16:23 | 41.80822 | 12.27137 | 13 ft | 9 kts | 336° |
| 2026-05-07 16:23 | 41.80886 | 12.27103 | 13 ft | 10 kts | 340° |
| 2026-05-07 16:24 | 41.80959 | 12.27067 | 14 ft | 12 kts | 340° |
| 2026-05-07 16:24 | 41.80972 | 12.26974 | 14 ft | 12 kts | 249° |
| 2026-05-07 16:24 | 41.80930 | 12.26824 | 15 ft | 29 kts | 249° |
| 2026-05-07 16:24 | 41.80778 | 12.26267 | 19 ft | 95 kts | 250° |
| 2026-05-07 16:25 | 41.80481 | 12.25192 | 16 ft | 148 kts | 249° |
| 2026-05-07 16:25 | 41.80101 | 12.23804 | 457 ft | 149 kts | 252° |
| 2026-05-07 16:25 | 41.79761 | 12.22580 | 1184 ft | 144 kts | 252° |
| 2026-05-07 16:25 | 41.79405 | 12.21312 | 1645 ft | 151 kts | 250° |
| 2026-05-07 16:26 | 41.79009 | 12.19912 | 1884 ft | 171 kts | 250° |
| 2026-05-07 16:26 | 41.78832 | 12.18242 | 2250 ft | 190 kts | 288° |
| 2026-05-07 16:26 | 41.79546 | 12.16775 | 2833 ft | 190 kts | 316° |
| 2026-05-07 16:26 | 41.80496 | 12.15553 | 3443 ft | 189 kts | 319° |
| 2026-05-07 16:27 | 41.81473 | 12.14302 | 3864 ft | 201 kts | 316° |
| 2026-05-07 16:27 | 41.82484 | 12.12891 | 4293 ft | 212 kts | 314° |
| 2026-05-07 16:27 | 41.83492 | 12.11393 | 4812 ft | 218 kts | 312° |
| 2026-05-07 16:27 | 41.84274 | 12.09659 | 5403 ft | 220 kts | 287° |
| 2026-05-07 16:28 | 41.84521 | 12.07586 | 5820 ft | 231 kts | 275° |
| 2026-05-07 16:28 | 41.84719 | 12.05361 | 6150 ft | 251 kts | 277° |
| 2026-05-07 16:28 | 41.84946 | 12.02948 | 6552 ft | 270 kts | 275° |
| 2026-05-07 16:28 | 41.85172 | 12.00405 | 7198 ft | 277 kts | 276° |
| 2026-05-07 16:29 | 41.85390 | 11.97867 | 8006 ft | 278 kts | 275° |
| 2026-05-07 16:29 | 41.85604 | 11.95281 | 8808 ft | 280 kts | 275° |
| 2026-05-07 16:29 | 41.85921 | 11.92690 | 9577 ft | 285 kts | 287° |
| 2026-05-07 16:29 | 41.86812 | 11.90305 | 10313 ft | 290 kts | 304° |
| 2026-05-07 16:30 | 41.88259 | 11.88292 | 10609 ft | 313 kts | 321° |
| 2026-05-07 16:30 | 41.90283 | 11.86891 | 10901 ft | 335 kts | 342° |
| 2026-05-07 16:30 | 41.92585 | 11.86495 | 11461 ft | 345 kts | 1° |
| 2026-05-07 16:30 | 41.94948 | 11.87185 | 12110 ft | 352 kts | 22° |
| 2026-05-07 16:31 | 41.97159 | 11.88691 | 12693 ft | 361 kts | 27° |
| 2026-05-07 16:31 | 41.99403 | 11.90296 | 13266 ft | 368 kts | 27° |
| 2026-05-07 16:31 | 42.01677 | 11.91934 | 13878 ft | 373 kts | 26° |
| 2026-05-07 16:31 | 42.03981 | 11.93594 | 14436 ft | 378 kts | 26° |
| 2026-05-07 16:32 | 42.06310 | 11.95269 | 15008 ft | 382 kts | 26° |
| 2026-05-07 16:32 | 42.08662 | 11.96961 | 15580 ft | 385 kts | 26° |
| 2026-05-07 16:32 | 42.11040 | 11.98668 | 16147 ft | 389 kts | 26° |
| 2026-05-07 16:32 | 42.13436 | 12.00396 | 16703 ft | 393 kts | 26° |
| 2026-05-07 16:33 | 42.15923 | 12.01939 | 17221 ft | 394 kts | 16° |
| 2026-05-07 16:33 | 42.18578 | 12.02853 | 17787 ft | 394 kts | 5° |
| 2026-05-07 16:33 | 42.21311 | 12.03084 | 18295 ft | 393 kts | 354° |
| 2026-05-07 16:33 | 42.24016 | 12.02657 | 18796 ft | 392 kts | 346° |
| 2026-05-07 16:34 | 42.26714 | 12.02039 | 19311 ft | 395 kts | 346° |
| 2026-05-07 16:34 | 42.29428 | 12.01418 | 19831 ft | 397 kts | 346° |
| 2026-05-07 16:34 | 42.32160 | 12.00796 | 20356 ft | 399 kts | 346° |
| 2026-05-07 16:34 | 42.34911 | 12.00173 | 20885 ft | 402 kts | 346° |
| 2026-05-07 16:35 | 42.37677 | 11.99550 | 21397 ft | 404 kts | 346° |
| 2026-05-07 16:35 | 42.40464 | 11.98925 | 21911 ft | 407 kts | 346° |
| 2026-05-07 16:35 | 42.43228 | 11.98303 | 22379 ft | 409 kts | 346° |
| 2026-05-07 16:35 | 42.46053 | 11.97665 | 22853 ft | 412 kts | 345° |
| 2026-05-07 16:36 | 42.48892 | 11.97026 | 23308 ft | 415 kts | 345° |
| 2026-05-07 16:36 | 42.51747 | 11.96387 | 23734 ft | 417 kts | 345° |
| 2026-05-07 16:36 | 42.54617 | 11.95744 | 24122 ft | 419 kts | 345° |
| 2026-05-07 16:36 | 42.57498 | 11.95092 | 24488 ft | 421 kts | 345° |
| 2026-05-07 16:37 | 42.60394 | 11.94431 | 24877 ft | 422 kts | 344° |
| 2026-05-07 16:37 | 42.63296 | 11.93768 | 25230 ft | 424 kts | 344° |
| 2026-05-07 16:37 | 42.66213 | 11.93102 | 25578 ft | 426 kts | 344° |
| 2026-05-07 16:37 | 42.69150 | 11.92433 | 25937 ft | 428 kts | 343° |
| 2026-05-07 16:38 | 42.72093 | 11.91765 | 26277 ft | 430 kts | 343° |
| 2026-05-07 16:38 | 42.75048 | 11.91093 | 26613 ft | 432 kts | 343° |
| 2026-05-07 16:38 | 42.78020 | 11.90417 | 26939 ft | 434 kts | 343° |
| 2026-05-07 16:38 | 42.80995 | 11.89726 | 27297 ft | 434 kts | 341° |
| 2026-05-07 16:39 | 42.83872 | 11.88622 | 27604 ft | 427 kts | 332° |
| 2026-05-07 16:39 | 42.86553 | 11.86940 | 27914 ft | 421 kts | 324° |
| 2026-05-07 16:39 | 42.89133 | 11.85029 | 28225 ft | 423 kts | 324° |
| 2026-05-07 16:39 | 42.91726 | 11.83121 | 28538 ft | 425 kts | 324° |
| 2026-05-07 16:40 | 42.94337 | 11.81212 | 28826 ft | 426 kts | 324° |
| 2026-05-07 16:40 | 42.96955 | 11.79302 | 29115 ft | 427 kts | 324° |
| 2026-05-07 16:40 | 42.99583 | 11.77386 | 29403 ft | 429 kts | 324° |
| 2026-05-07 16:40 | 43.02182 | 11.75485 | 29676 ft | 430 kts | 324° |
| 2026-05-07 16:41 | 43.04825 | 11.73547 | 29941 ft | 432 kts | 323° |
| 2026-05-07 16:41 | 43.07484 | 11.71592 | 30141 ft | 434 kts | 323° |
| 2026-05-07 16:41 | 43.10153 | 11.69630 | 30352 ft | 436 kts | 323° |
| 2026-05-07 16:41 | 43.12832 | 11.67659 | 30558 ft | 437 kts | 323° |
| 2026-05-07 16:42 | 43.15509 | 11.65684 | 30820 ft | 437 kts | 323° |
| 2026-05-07 16:42 | 43.18187 | 11.63715 | 31100 ft | 437 kts | 325° |
| 2026-05-07 16:42 | 43.21029 | 11.62100 | 31360 ft | 447 kts | 334° |
| 2026-05-07 16:42 | 43.24099 | 11.61125 | 31648 ft | 459 kts | 344° |
| 2026-05-07 16:43 | 43.27323 | 11.60863 | 31906 ft | 469 kts | 352° |
| 2026-05-07 16:43 | 43.30587 | 11.60896 | 32174 ft | 469 kts | 352° |
| 2026-05-07 16:43 | 43.33849 | 11.60925 | 32443 ft | 469 kts | 352° |
| 2026-05-07 16:43 | 43.37106 | 11.60951 | 32694 ft | 469 kts | 352° |
| 2026-05-07 16:44 | 43.40367 | 11.60970 | 32931 ft | 469 kts | 352° |
| 2026-05-07 16:44 | 43.43588 | 11.60980 | 33189 ft | 468 kts | 352° |
| 2026-05-07 16:44 | 43.46842 | 11.60988 | 33485 ft | 467 kts | 352° |
| 2026-05-07 16:44 | 43.50092 | 11.60999 | 33757 ft | 466 kts | 352° |
| 2026-05-07 16:45 | 43.53334 | 11.61010 | 34011 ft | 466 kts | 352° |
| 2026-05-07 16:45 | 43.56575 | 11.61024 | 34240 ft | 466 kts | 352° |
| 2026-05-07 16:45 | 43.59817 | 11.61041 | 34465 ft | 465 kts | 352° |
| 2026-05-07 16:45 | 43.63055 | 11.61056 | 34669 ft | 465 kts | 353° |
| 2026-05-07 16:46 | 43.66292 | 11.61071 | 34909 ft | 465 kts | 353° |
| 2026-05-07 16:46 | 43.69530 | 11.61088 | 35134 ft | 465 kts | 353° |
| 2026-05-07 16:46 | 43.72763 | 11.61106 | 35296 ft | 464 kts | 353° |
| 2026-05-07 16:46 | 43.75994 | 11.61124 | 35479 ft | 464 kts | 353° |
| 2026-05-07 16:47 | 43.79217 | 11.61144 | 35667 ft | 463 kts | 353° |
| 2026-05-07 16:47 | 43.82444 | 11.61163 | 35826 ft | 464 kts | 353° |
| 2026-05-07 16:47 | 43.85666 | 11.61179 | 35978 ft | 464 kts | 353° |
| 2026-05-07 16:48 | 43.92119 | 11.61205 | 35996 ft | 463 kts | 353° |
| 2026-05-07 16:48 | 43.98567 | 11.61231 | 35996 ft | 463 kts | 353° |
| 2026-05-07 16:49 | 44.05018 | 11.61251 | 36012 ft | 463 kts | 353° |
| 2026-05-07 16:49 | 44.11463 | 11.61289 | 36026 ft | 463 kts | 353° |
| 2026-05-07 16:50 | 44.17908 | 11.61335 | 36031 ft | 463 kts | 353° |
| 2026-05-07 16:50 | 44.24348 | 11.61367 | 36030 ft | 463 kts | 353° |
| 2026-05-07 16:51 | 44.30790 | 11.61391 | 36011 ft | 463 kts | 353° |
| 2026-05-07 16:51 | 44.37230 | 11.61420 | 35996 ft | 463 kts | 353° |
| 2026-05-07 16:52 | 44.43670 | 11.61452 | 36005 ft | 462 kts | 353° |
| 2026-05-07 16:52 | 44.50099 | 11.61494 | 36000 ft | 461 kts | 353° |
| 2026-05-07 16:53 | 44.56514 | 11.61528 | 35998 ft | 461 kts | 353° |
| 2026-05-07 16:53 | 44.62924 | 11.61549 | 36019 ft | 461 kts | 353° |
| 2026-05-07 16:54 | 44.69288 | 11.61583 | 36017 ft | 460 kts | 353° |
| 2026-05-07 16:54 | 44.75697 | 11.61610 | 36018 ft | 460 kts | 353° |
| 2026-05-07 16:55 | 44.82085 | 11.61503 | 36043 ft | 455 kts | 347° |
| 2026-05-07 16:55 | 44.88342 | 11.60441 | 36031 ft | 453 kts | 346° |
| 2026-05-07 16:56 | 44.94598 | 11.59361 | 36027 ft | 453 kts | 346° |
| 2026-05-07 16:56 | 45.03980 | 11.57732 | 36030 ft | 453 kts | 346° |
| 2026-05-07 16:57 | 45.10237 | 11.56644 | 36040 ft | 453 kts | 346° |
| 2026-05-07 16:57 | 45.16495 | 11.55545 | 36018 ft | 453 kts | 346° |
| 2026-05-07 16:58 | 45.22750 | 11.54448 | 36019 ft | 453 kts | 346° |
| 2026-05-07 16:58 | 45.29001 | 11.53348 | 36002 ft | 452 kts | 346° |
| 2026-05-07 16:59 | 45.35248 | 11.52243 | 35992 ft | 452 kts | 346° |
| 2026-05-07 16:59 | 45.41496 | 11.51127 | 36004 ft | 453 kts | 346° |
| 2026-05-07 17:00 | 45.46696 | 11.50210 | 35989 ft | 453 kts | 346° |
| 2026-05-07 17:00 | 45.52946 | 11.49102 | 35976 ft | 453 kts | 346° |
| 2026-05-07 17:01 | 45.59201 | 11.47985 | 35998 ft | 453 kts | 346° |
| 2026-05-07 17:01 | 45.65447 | 11.46871 | 35995 ft | 452 kts | 346° |
| 2026-05-07 17:02 | 45.71695 | 11.45755 | 36002 ft | 452 kts | 346° |
| 2026-05-07 17:02 | 45.77940 | 11.44639 | 36013 ft | 452 kts | 346° |
| 2026-05-07 17:03 | 45.84185 | 11.43525 | 36035 ft | 452 kts | 346° |
| 2026-05-07 17:03 | 45.90421 | 11.42410 | 36033 ft | 451 kts | 346° |
| 2026-05-07 17:04 | 45.96650 | 11.41286 | 36040 ft | 451 kts | 346° |
| 2026-05-07 17:04 | 46.02880 | 11.40158 | 36058 ft | 451 kts | 346° |
| 2026-05-07 17:05 | 46.09113 | 11.39028 | 36038 ft | 451 kts | 346° |
| 2026-05-07 17:05 | 46.15349 | 11.37899 | 36035 ft | 452 kts | 346° |
| 2026-05-07 17:06 | 46.21537 | 11.36774 | 36032 ft | 451 kts | 346° |
| 2026-05-07 17:06 | 46.27661 | 11.35135 | 36021 ft | 442 kts | 335° |
| 2026-05-07 17:07 | 46.33476 | 11.32305 | 36024 ft | 441 kts | 335° |
| 2026-05-07 17:07 | 46.39296 | 11.29479 | 36047 ft | 441 kts | 335° |
| 2026-05-07 17:08 | 46.45116 | 11.26651 | 35974 ft | 441 kts | 335° |
| 2026-05-07 17:08 | 46.50927 | 11.23811 | 36037 ft | 441 kts | 335° |
| 2026-05-07 17:09 | 46.56739 | 11.20962 | 36036 ft | 441 kts | 335° |
| 2026-05-07 17:09 | 46.62550 | 11.18119 | 36049 ft | 441 kts | 335° |
| 2026-05-07 17:10 | 46.68366 | 11.15277 | 36060 ft | 441 kts | 335° |
| 2026-05-07 17:10 | 46.74180 | 11.12418 | 36043 ft | 441 kts | 335° |
| 2026-05-07 17:11 | 46.79989 | 11.09543 | 36051 ft | 441 kts | 335° |
| 2026-05-07 17:11 | 46.85791 | 11.06649 | 36062 ft | 440 kts | 333° |
| 2026-05-07 17:12 | 46.91341 | 11.03001 | 36045 ft | 437 kts | 330° |
| 2026-05-07 17:12 | 46.96874 | 10.99295 | 36035 ft | 438 kts | 330° |
| 2026-05-07 17:13 | 47.02438 | 10.95664 | 36037 ft | 438 kts | 331° |
| 2026-05-07 17:13 | 47.08016 | 10.92047 | 36055 ft | 438 kts | 332° |
| 2026-05-07 17:14 | 47.13561 | 10.88419 | 36048 ft | 438 kts | 331° |
| 2026-05-07 17:14 | 47.19131 | 10.84758 | 36045 ft | 438 kts | 331° |
| 2026-05-07 17:15 | 47.24694 | 10.81091 | 36043 ft | 438 kts | 331° |
| 2026-05-07 17:15 | 47.30268 | 10.77404 | 36071 ft | 438 kts | 331° |
| 2026-05-07 17:16 | 47.35835 | 10.73722 | 36058 ft | 439 kts | 331° |
| 2026-05-07 17:16 | 47.41113 | 10.69456 | 36055 ft | 432 kts | 321° |
| 2026-05-07 17:17 | 47.46062 | 10.64382 | 36050 ft | 433 kts | 321° |
| 2026-05-07 17:17 | 47.51015 | 10.59300 | 36051 ft | 433 kts | 321° |
| 2026-05-07 17:18 | 47.55971 | 10.54217 | 36062 ft | 433 kts | 321° |
| 2026-05-07 17:18 | 47.60928 | 10.49117 | 36061 ft | 433 kts | 321° |
| 2026-05-07 17:19 | 47.65884 | 10.44005 | 36055 ft | 433 kts | 321° |
| 2026-05-07 17:19 | 47.70835 | 10.38884 | 36056 ft | 434 kts | 321° |
| 2026-05-07 17:20 | 47.75755 | 10.33710 | 36056 ft | 433 kts | 319° |
| 2026-05-07 17:20 | 47.80416 | 10.28167 | 36058 ft | 432 kts | 316° |
| 2026-05-07 17:21 | 47.84994 | 10.22399 | 36041 ft | 432 kts | 316° |
| 2026-05-07 17:21 | 47.89602 | 10.16643 | 36045 ft | 432 kts | 317° |
| 2026-05-07 17:22 | 47.94249 | 10.10947 | 36044 ft | 432 kts | 317° |
| 2026-05-07 17:22 | 47.98903 | 10.05264 | 36042 ft | 432 kts | 317° |
| 2026-05-07 17:23 | 48.03549 | 9.99565 | 36048 ft | 433 kts | 317° |
| 2026-05-07 17:23 | 48.08195 | 9.93837 | 36042 ft | 433 kts | 317° |
| 2026-05-07 17:24 | 48.12834 | 9.88089 | 36039 ft | 433 kts | 317° |
| 2026-05-07 17:24 | 48.17475 | 9.82329 | 36040 ft | 433 kts | 317° |
| 2026-05-07 17:25 | 48.22115 | 9.76570 | 36042 ft | 433 kts | 317° |
| 2026-05-07 17:25 | 48.26743 | 9.70795 | 36052 ft | 433 kts | 317° |
| 2026-05-07 17:26 | 48.31376 | 9.65010 | 36048 ft | 433 kts | 317° |
| 2026-05-07 17:26 | 48.36011 | 9.59200 | 36047 ft | 433 kts | 317° |
| 2026-05-07 17:27 | 48.40606 | 9.53327 | 36045 ft | 433 kts | 316° |
| 2026-05-07 17:27 | 48.45187 | 9.47420 | 36053 ft | 433 kts | 317° |
| 2026-05-07 17:28 | 48.49767 | 9.41518 | 36052 ft | 433 kts | 317° |
| 2026-05-07 17:28 | 48.54326 | 9.35652 | 36061 ft | 433 kts | 317° |
| 2026-05-07 17:29 | 48.58901 | 9.29739 | 36061 ft | 433 kts | 317° |
| 2026-05-07 17:29 | 48.63878 | 9.24595 | 36055 ft | 438 kts | 332° |
| 2026-05-07 17:30 | 48.69473 | 9.20901 | 36055 ft | 439 kts | 333° |
| 2026-05-07 17:30 | 48.75069 | 9.17194 | 36062 ft | 439 kts | 333° |
| 2026-05-07 17:31 | 48.80664 | 9.13481 | 36060 ft | 439 kts | 333° |
| 2026-05-07 17:31 | 48.86256 | 9.09767 | 36057 ft | 439 kts | 333° |
| 2026-05-07 17:32 | 48.91844 | 9.06000 | 36059 ft | 439 kts | 333° |
| 2026-05-07 17:32 | 48.96504 | 9.02762 | 36067 ft | 439 kts | 333° |
| 2026-05-07 17:33 | 49.02960 | 8.98232 | 36060 ft | 439 kts | 333° |
| 2026-05-07 17:33 | 49.08519 | 8.94354 | 36056 ft | 439 kts | 333° |
| 2026-05-07 17:34 | 49.14083 | 8.90475 | 36055 ft | 439 kts | 333° |
| 2026-05-07 17:34 | 49.19652 | 8.86618 | 36066 ft | 440 kts | 336° |
| 2026-05-07 17:35 | 49.25480 | 8.83680 | 36063 ft | 441 kts | 340° |
| 2026-05-07 17:35 | 49.31323 | 8.80835 | 36061 ft | 441 kts | 340° |
| 2026-05-07 17:36 | 49.37166 | 8.77991 | 36058 ft | 441 kts | 340° |
| 2026-05-07 17:36 | 49.43005 | 8.75135 | 36067 ft | 440 kts | 340° |
| 2026-05-07 17:37 | 49.48846 | 8.72264 | 36058 ft | 441 kts | 340° |
| 2026-05-07 17:37 | 49.54685 | 8.69388 | 36052 ft | 441 kts | 340° |
| 2026-05-07 17:38 | 49.60539 | 8.66496 | 35708 ft | 443 kts | 340° |
| 2026-05-07 17:38 | 49.63466 | 8.65044 | 35235 ft | 441 kts | 340° |
| 2026-05-07 17:38 | 49.66376 | 8.63603 | 34759 ft | 439 kts | 340° |
| 2026-05-07 17:39 | 49.69261 | 8.62060 | 34285 ft | 436 kts | 335° |
| 2026-05-07 17:39 | 49.71943 | 8.59932 | 33774 ft | 433 kts | 326° |
| 2026-05-07 17:39 | 49.74360 | 8.57208 | 33243 ft | 428 kts | 318° |
| 2026-05-07 17:39 | 49.76532 | 8.54102 | 32636 ft | 424 kts | 316° |
| 2026-05-07 17:40 | 49.78666 | 8.50986 | 32155 ft | 420 kts | 316° |
| 2026-05-07 17:40 | 49.80786 | 8.47889 | 32014 ft | 418 kts | 316° |
| 2026-05-07 17:40 | 49.84622 | 8.41133 | 31843 ft | 418 kts | 301° |
| 2026-05-07 17:41 | 49.85907 | 8.37117 | 31583 ft | 416 kts | 290° |
| 2026-05-07 17:41 | 49.86802 | 8.32925 | 31336 ft | 414 kts | 288° |
| 2026-05-07 17:41 | 49.87681 | 8.28683 | 31079 ft | 412 kts | 288° |
| 2026-05-07 17:41 | 49.88575 | 8.24410 | 30824 ft | 411 kts | 288° |
| 2026-05-07 17:42 | 49.89447 | 8.20266 | 30579 ft | 409 kts | 288° |
| 2026-05-07 17:42 | 49.90328 | 8.16077 | 30323 ft | 407 kts | 288° |
| 2026-05-07 17:42 | 49.91202 | 8.11912 | 30077 ft | 405 kts | 288° |
| 2026-05-07 17:42 | 49.92073 | 8.07759 | 29788 ft | 404 kts | 288° |
| 2026-05-07 17:43 | 49.92937 | 8.03612 | 29496 ft | 403 kts | 288° |
| 2026-05-07 17:43 | 49.93790 | 7.99480 | 29193 ft | 401 kts | 288° |
| 2026-05-07 17:43 | 49.94638 | 7.95369 | 28941 ft | 399 kts | 288° |
| 2026-05-07 17:43 | 49.95459 | 7.91255 | 28650 ft | 398 kts | 287° |
| 2026-05-07 17:44 | 49.96246 | 7.87142 | 28370 ft | 396 kts | 286° |
| 2026-05-07 17:44 | 49.97010 | 7.83040 | 28097 ft | 395 kts | 286° |
| 2026-05-07 17:44 | 49.97764 | 7.78948 | 27824 ft | 393 kts | 286° |
| 2026-05-07 17:44 | 49.98515 | 7.74869 | 27554 ft | 392 kts | 285° |
| 2026-05-07 17:45 | 49.99277 | 7.70812 | 27287 ft | 390 kts | 286° |
| 2026-05-07 17:45 | 50.00081 | 7.66795 | 27023 ft | 389 kts | 287° |
| 2026-05-07 17:45 | 50.00914 | 7.62806 | 26765 ft | 387 kts | 288° |
| 2026-05-07 17:45 | 50.01753 | 7.58835 | 26498 ft | 386 kts | 288° |
| 2026-05-07 17:46 | 50.02306 | 7.56210 | 26328 ft | 385 kts | 287° |
| 2026-05-07 17:46 | 50.03133 | 7.52256 | 26069 ft | 384 kts | 287° |
| 2026-05-07 17:46 | 50.03947 | 7.48315 | 25822 ft | 382 kts | 287° |
| 2026-05-07 17:46 | 50.04752 | 7.44379 | 25571 ft | 381 kts | 287° |
| 2026-05-07 17:47 | 50.05548 | 7.40458 | 25316 ft | 380 kts | 287° |
| 2026-05-07 17:47 | 50.06335 | 7.36542 | 25077 ft | 378 kts | 287° |
| 2026-05-07 17:47 | 50.07115 | 7.32640 | 24833 ft | 377 kts | 286° |
| 2026-05-07 17:47 | 50.07765 | 7.28702 | 24595 ft | 375 kts | 278° |
| 2026-05-07 17:48 | 50.08011 | 7.24681 | 24355 ft | 373 kts | 272° |
| 2026-05-07 17:48 | 50.08176 | 7.20659 | 24117 ft | 372 kts | 272° |
| 2026-05-07 17:48 | 50.08344 | 7.16652 | 23880 ft | 370 kts | 273° |
| 2026-05-07 17:48 | 50.08512 | 7.12656 | 23643 ft | 369 kts | 272° |
| 2026-05-07 17:49 | 50.08679 | 7.08676 | 23370 ft | 368 kts | 272° |
| 2026-05-07 17:49 | 50.08846 | 7.04705 | 23092 ft | 367 kts | 273° |
| 2026-05-07 17:49 | 50.09012 | 7.00752 | 22816 ft | 365 kts | 272° |
| 2026-05-07 17:49 | 50.09173 | 6.96812 | 22543 ft | 364 kts | 272° |
| 2026-05-07 17:50 | 50.09331 | 6.92886 | 22272 ft | 362 kts | 272° |
| 2026-05-07 17:50 | 50.09494 | 6.88983 | 22061 ft | 361 kts | 275° |
| 2026-05-07 17:50 | 50.10092 | 6.85195 | 22055 ft | 363 kts | 292° |
| 2026-05-07 17:50 | 50.11376 | 6.81850 | 22050 ft | 365 kts | 304° |
| 2026-05-07 17:51 | 50.12879 | 6.78601 | 22046 ft | 366 kts | 304° |
| 2026-05-07 17:51 | 50.14376 | 6.75398 | 22052 ft | 366 kts | 304° |
| 2026-05-07 17:51 | 50.15882 | 6.72189 | 22046 ft | 366 kts | 304° |
| 2026-05-07 17:51 | 50.17384 | 6.68983 | 22048 ft | 366 kts | 304° |
| 2026-05-07 17:52 | 50.18884 | 6.65769 | 22047 ft | 366 kts | 304° |
| 2026-05-07 17:52 | 50.20360 | 6.62597 | 22046 ft | 366 kts | 304° |
| 2026-05-07 17:52 | 50.21856 | 6.59376 | 22055 ft | 366 kts | 304° |
| 2026-05-07 17:52 | 50.23349 | 6.56155 | 22053 ft | 366 kts | 304° |
| 2026-05-07 17:53 | 50.24840 | 6.52927 | 22054 ft | 366 kts | 304° |
| 2026-05-07 17:53 | 50.26328 | 6.49705 | 22058 ft | 366 kts | 304° |
| 2026-05-07 17:53 | 50.27820 | 6.46473 | 22051 ft | 366 kts | 304° |
| 2026-05-07 17:53 | 50.29308 | 6.43249 | 22056 ft | 366 kts | 304° |
| 2026-05-07 17:54 | 50.30798 | 6.40019 | 22055 ft | 366 kts | 304° |
| 2026-05-07 17:54 | 50.32285 | 6.36787 | 22056 ft | 366 kts | 304° |
| 2026-05-07 17:54 | 50.33769 | 6.33547 | 22064 ft | 366 kts | 304° |
| 2026-05-07 17:54 | 50.35253 | 6.30307 | 22049 ft | 366 kts | 304° |
| 2026-05-07 17:55 | 50.36738 | 6.27068 | 22058 ft | 366 kts | 304° |
| 2026-05-07 17:55 | 50.38221 | 6.23830 | 22055 ft | 366 kts | 304° |
| 2026-05-07 17:55 | 50.39703 | 6.20591 | 22057 ft | 366 kts | 304° |
| 2026-05-07 17:55 | 50.41185 | 6.17350 | 22058 ft | 366 kts | 304° |
| 2026-05-07 17:56 | 50.42668 | 6.14105 | 22028 ft | 366 kts | 304° |
| 2026-05-07 17:56 | 50.44150 | 6.10858 | 21756 ft | 365 kts | 304° |
| 2026-05-07 17:56 | 50.45611 | 6.07655 | 21420 ft | 359 kts | 304° |
| 2026-05-07 17:56 | 50.47056 | 6.04480 | 20975 ft | 355 kts | 304° |
| 2026-05-07 17:57 | 50.48483 | 6.01334 | 20535 ft | 353 kts | 304° |
| 2026-05-07 17:57 | 50.49423 | 5.99255 | 20244 ft | 351 kts | 304° |
| 2026-05-07 17:57 | 50.51307 | 5.95078 | 19646 ft | 349 kts | 304° |
| 2026-05-07 17:57 | 50.52710 | 5.91972 | 19208 ft | 348 kts | 304° |
| 2026-05-07 17:58 | 50.54106 | 5.88880 | 18769 ft | 346 kts | 304° |
| 2026-05-07 17:58 | 50.55498 | 5.85796 | 18322 ft | 345 kts | 304° |
| 2026-05-07 17:58 | 50.56886 | 5.82722 | 17848 ft | 343 kts | 304° |
| 2026-05-07 17:58 | 50.58261 | 5.79670 | 17418 ft | 341 kts | 304° |
| 2026-05-07 17:59 | 50.59626 | 5.76634 | 17004 ft | 338 kts | 304° |
| 2026-05-07 17:59 | 50.60979 | 5.73623 | 16583 ft | 336 kts | 304° |
| 2026-05-07 17:59 | 50.62322 | 5.70626 | 16164 ft | 334 kts | 304° |
| 2026-05-07 17:59 | 50.63675 | 5.67598 | 15747 ft | 344 kts | 304° |
| 2026-05-07 18:00 | 50.65042 | 5.64536 | 15316 ft | 347 kts | 304° |
| 2026-05-07 18:00 | 50.66432 | 5.61420 | 14910 ft | 347 kts | 304° |
| 2026-05-07 18:00 | 50.67818 | 5.58318 | 14476 ft | 345 kts | 304° |
| 2026-05-07 18:00 | 50.69202 | 5.55225 | 14044 ft | 344 kts | 304° |
| 2026-05-07 18:01 | 50.70577 | 5.52146 | 13581 ft | 343 kts | 304° |
| 2026-05-07 18:01 | 50.71941 | 5.49087 | 13136 ft | 341 kts | 304° |
| 2026-05-07 18:01 | 50.73303 | 5.46031 | 12685 ft | 339 kts | 304° |
| 2026-05-07 18:01 | 50.74653 | 5.42995 | 12250 ft | 337 kts | 304° |
| 2026-05-07 18:02 | 50.77320 | 5.36981 | 11380 ft | 332 kts | 304° |
| 2026-05-07 18:02 | 50.78638 | 5.33994 | 10922 ft | 330 kts | 304° |
| 2026-05-07 18:02 | 50.79945 | 5.31025 | 10479 ft | 328 kts | 304° |
| 2026-05-07 18:03 | 50.81244 | 5.28078 | 10163 ft | 327 kts | 304° |
| 2026-05-07 18:03 | 50.82541 | 5.25143 | 9777 ft | 325 kts | 304° |
| 2026-05-07 18:03 | 50.83829 | 5.22221 | 9374 ft | 323 kts | 304° |
| 2026-05-07 18:03 | 50.85106 | 5.19315 | 8978 ft | 321 kts | 304° |
| 2026-05-07 18:04 | 50.86374 | 5.16421 | 8538 ft | 318 kts | 304° |
| 2026-05-07 18:04 | 50.87623 | 5.13553 | 8069 ft | 314 kts | 304° |
| 2026-05-07 18:04 | 50.88833 | 5.10761 | 7613 ft | 300 kts | 304° |
| 2026-05-07 18:04 | 50.89982 | 5.08103 | 7153 ft | 286 kts | 304° |
| 2026-05-07 18:05 | 50.91084 | 5.05551 | 6714 ft | 276 kts | 304° |
| 2026-05-07 18:05 | 50.92146 | 5.03073 | 6248 ft | 267 kts | 304° |
| 2026-05-07 18:05 | 50.93169 | 5.00677 | 5783 ft | 258 kts | 304° |
| 2026-05-07 18:05 | 50.94148 | 4.98349 | 5317 ft | 250 kts | 302° |
| 2026-05-07 18:06 | 50.94811 | 4.95832 | 4859 ft | 246 kts | 285° |
| 2026-05-07 18:06 | 50.95216 | 4.93242 | 4389 ft | 240 kts | 283° |
| 2026-05-07 18:06 | 50.95581 | 4.90703 | 3929 ft | 239 kts | 283° |
| 2026-05-07 18:06 | 50.95953 | 4.88096 | 3516 ft | 240 kts | 283° |
| 2026-05-07 18:07 | 50.96316 | 4.85551 | 3190 ft | 238 kts | 283° |
| 2026-05-07 18:07 | 50.96620 | 4.82985 | 3024 ft | 231 kts | 271° |
| 2026-05-07 18:07 | 50.96351 | 4.80530 | 2998 ft | 221 kts | 249° |
| 2026-05-07 18:07 | 50.95850 | 4.78345 | 2994 ft | 208 kts | 250° |
| 2026-05-07 18:08 | 50.95364 | 4.76219 | 3002 ft | 203 kts | 250° |
| 2026-05-07 18:08 | 50.94879 | 4.74091 | 2979 ft | 203 kts | 250° |
| 2026-05-07 18:08 | 50.94400 | 4.71992 | 2783 ft | 201 kts | 250° |
| 2026-05-07 18:08 | 50.93925 | 4.69912 | 2535 ft | 200 kts | 250° |
| 2026-05-07 18:09 | 50.93457 | 4.67864 | 2271 ft | 200 kts | 250° |
| 2026-05-07 18:09 | 50.92988 | 4.65812 | 2030 ft | 196 kts | 250° |
| 2026-05-07 18:09 | 50.92528 | 4.63804 | 1735 ft | 185 kts | 250° |
| 2026-05-07 18:09 | 50.92108 | 4.61973 | 1486 ft | 173 kts | 250° |
| 2026-05-07 18:10 | 50.91711 | 4.60240 | 1290 ft | 157 kts | 250° |
| 2026-05-07 18:10 | 50.91349 | 4.58664 | 1035 ft | 148 kts | 250° |
| 2026-05-07 18:10 | 50.91014 | 4.57163 | 806 ft | 145 kts | 251° |
| 2026-05-07 18:10 | 50.90673 | 4.55664 | 642 ft | 144 kts | 250° |
| 2026-05-07 18:11 | 50.90319 | 4.54179 | 467 ft | 144 kts | 251° |
| 2026-05-07 18:11 | 50.90086 | 4.53177 | 336 ft | 144 kts | 250° |
| 2026-05-07 18:11 | 50.89647 | 4.51253 | 173 ft | 125 kts | 250° |
| 2026-05-07 18:11 | 50.89410 | 4.50227 | 176 ft | 64 kts | 250° |
| 2026-05-07 18:12 | 50.89331 | 4.49824 | 177 ft | 24 kts | 275° |
| 2026-05-07 18:12 | 50.89405 | 4.49594 | 168 ft | 15 kts | 308° |
| 2026-05-07 18:12 | 50.89415 | 4.49575 | 168 ft | 2 kts | 309° |
| 2026-05-07 18:12 | 50.89425 | 4.49555 | 168 ft | 3 kts | 309° |
| 2026-05-07 18:13 | 50.89448 | 4.49509 | 166 ft | 9 kts | 308° |
| 2026-05-07 18:13 | 50.89488 | 4.49424 | 164 ft | 9 kts | 306° |
| 2026-05-07 18:13 | 50.89526 | 4.49341 | 162 ft | 10 kts | 306° |
| 2026-05-07 18:13 | 50.89576 | 4.49234 | 157 ft | 10 kts | 306° |
| 2026-05-07 18:14 | 50.89614 | 4.49158 | 154 ft | 9 kts | 318° |
| 2026-05-07 18:14 | 50.89679 | 4.49158 | 150 ft | 12 kts | 15° |
| 2026-05-07 18:14 | 50.89775 | 4.49198 | 145 ft | 15 kts | 13° |
| 2026-05-07 18:14 | 50.89894 | 4.49245 | 138 ft | 21 kts | 14° |
| 2026-05-07 18:15 | 50.90029 | 4.49301 | 131 ft | 15 kts | 14° |
| 2026-05-07 18:15 | 50.90139 | 4.49345 | 129 ft | 18 kts | 13° |
| 2026-05-07 18:15 | 50.90250 | 4.49392 | 125 ft | 13 kts | 16° |
| 2026-05-07 18:15 | 50.90341 | 4.49362 | 122 ft | 15 kts | 331° |
| 2026-05-07 18:16 | 50.90430 | 4.49290 | 121 ft | 12 kts | 335° |
| 2026-05-07 18:16 | 50.90511 | 4.49232 | 122 ft | 12 kts | 336° |
| 2026-05-07 18:16 | 50.90558 | 4.49199 | 121 ft | 5 kts | 336° |
| 2026-05-07 18:16 | 50.90588 | 4.49177 | 121 ft | 5 kts | 335° |
| 2026-05-07 18:17 | 50.90600 | 4.49168 | 121 ft | 1 kts | 335° |
| 2026-05-07 18:17 | 50.90603 | 4.49166 | 121 ft | 0 kts | 335° |
| 2026-05-07 18:17 | 50.90607 | 4.49163 | 121 ft | 2 kts | 335° |
| 2026-05-07 18:18 | 50.90628 | 4.49148 | 120 ft | 5 kts | 335° |
| 2026-05-07 18:18 | 50.90660 | 4.49125 | 118 ft | 5 kts | 335° |
| 2026-05-07 18:18 | 50.90693 | 4.49100 | 121 ft | 7 kts | 335° |
| 2026-05-07 18:18 | 50.90711 | 4.49029 | 117 ft | 8 kts | 255° |
| 2026-05-07 18:19 | 50.90689 | 4.48955 | 117 ft | 8 kts | 246° |
| 2026-05-07 18:19 | 50.90665 | 4.48870 | 118 ft | 11 kts | 245° |
| 2026-05-07 18:19 | 50.90629 | 4.48746 | 118 ft | 13 kts | 245° |
| 2026-05-07 18:19 | 50.90597 | 4.48637 | 120 ft | 9 kts | 245° |
| 2026-05-07 18:20 | 50.90554 | 4.48603 | 120 ft | 7 kts | 170° |
| 2026-05-07 18:20 | 50.90528 | 4.48650 | 119 ft | 5 kts | 103° |
| 2026-05-07 18:20 | 50.90536 | 4.48702 | 119 ft | 6 kts | 63° |
| 2026-05-07 18:20 | 50.90558 | 4.48768 | 120 ft | 6 kts | 82° |
| 2026-05-07 18:21 | 50.90518 | 4.48815 | 120 ft | 4 kts | 156° |
| 2026-05-07 18:21 | 50.90497 | 4.48830 | 119 ft | 3 kts | 155° |
| 2026-05-07 18:21 | 50.90487 | 4.48838 | 118 ft | 1 kts | 155° |
| 2026-05-07 18:21 | 50.90485 | 4.48839 | 118 ft | 1 kts | 155° |
| 2026-05-07 18:22 | 50.90480 | 4.48842 | 117 ft | 2 kts | 155° |
| 2026-05-07 18:22 | 50.90477 | 4.48844 | 118 ft | 0 kts | 155° |
| 2026-05-07 18:22 | 50.90475 | 4.48846 | 118 ft | 0 kts | 155° |